createdAt,value
2023-04-15T00:00:10.365Z,6.80
2023-04-15T00:03:17.070Z,6.82
2023-04-15T00:06:20.750Z,7.30
2023-04-15T00:09:24.296Z,6.10
2023-04-15T00:12:27.979Z,6.40
2023-04-15T00:15:30.643Z,7.90
2023-04-15T00:18:33.244Z,8.48
2023-04-15T00:21:36.564Z,8.52
2023-04-15T00:24:39.796Z,8.77
2023-04-15T00:27:42.461Z,8.77
2023-04-15T00:30:45.932Z,8.47
2023-04-15T00:33:48.857Z,8.50
2023-04-15T00:36:52.614Z,9.00
2023-04-15T00:39:56.567Z,8.52
2023-04-15T00:43:00.128Z,8.93
2023-04-15T00:46:05.211Z,9.77
2023-04-15T00:49:08.938Z,9.90
2023-04-15T00:52:11.963Z,9.57
2023-04-15T00:55:16.420Z,8.80
2023-04-15T00:58:19.462Z,9.43
2023-04-15T01:01:22.751Z,10.07
2023-04-15T01:04:26.704Z,9.30
2023-04-15T01:07:30.889Z,9.68
2023-04-15T01:10:33.710Z,9.07
2023-04-15T01:13:36.916Z,9.23
2023-04-15T01:16:39.973Z,9.77
2023-04-15T01:19:43.388Z,10.23
2023-04-15T01:22:47.078Z,9.23
2023-04-15T01:25:51.482Z,9.43
2023-04-15T01:28:54.925Z,9.40
2023-04-15T01:31:57.786Z,9.10
2023-04-15T01:35:02.291Z,9.48
2023-04-15T01:38:09.845Z,9.85
2023-04-15T01:41:16.530Z,9.27
2023-04-15T01:44:20.323Z,9.13
2023-04-15T01:47:23.314Z,9.67
2023-04-15T01:50:27.145Z,9.27
2023-04-15T01:53:31.299Z,9.93
2023-04-15T01:56:33.858Z,9.77
2023-04-15T01:59:37.228Z,10.20
2023-04-15T02:02:40.385Z,9.80
2023-04-15T02:05:43.732Z,10.00
2023-04-15T02:08:47.527Z,10.40
2023-04-15T02:11:51.776Z,10.40
2023-04-15T02:14:54.452Z,9.77
2023-04-15T02:18:00.954Z,9.80
2023-04-15T02:21:06.046Z,9.70
2023-04-15T02:24:09.102Z,9.43
2023-04-15T02:27:15.598Z,9.10
2023-04-15T02:30:18.792Z,9.37
2023-04-15T02:33:21.871Z,9.47
2023-04-15T02:36:24.678Z,8.65
2023-04-15T02:39:27.496Z,8.77
2023-04-15T02:42:31.999Z,8.48
2023-04-15T02:45:37.791Z,8.13
2023-04-15T02:48:41.903Z,8.50
2023-04-15T02:51:49.499Z,8.23
2023-04-15T02:54:52.118Z,8.05
2023-04-15T02:57:54.646Z,8.18
2023-04-15T03:00:57.694Z,8.13
2023-04-15T03:04:00.581Z,8.10
2023-04-15T03:07:03.357Z,8.18
2023-04-15T03:10:07.380Z,7.93
2023-04-15T03:13:10.322Z,8.30
2023-04-15T03:16:14.673Z,8.30
2023-04-15T03:19:18.412Z,8.60
2023-04-15T03:22:21.376Z,8.50
2023-04-15T03:25:24.325Z,8.43
2023-04-15T03:28:28.670Z,8.65
2023-04-15T03:31:32.573Z,9.13
2023-04-15T03:34:36.196Z,8.43
2023-04-15T03:37:38.973Z,8.40
2023-04-15T03:40:42.258Z,8.90
2023-04-15T03:43:45.507Z,8.02
2023-04-15T03:46:48.533Z,8.30
2023-04-15T03:49:52.209Z,8.70
2023-04-15T03:52:54.904Z,8.25
2023-04-15T03:55:57.461Z,8.90
2023-04-15T03:59:01.452Z,8.18
2023-04-15T04:02:04.720Z,9.03
2023-04-15T04:05:08.235Z,8.60
2023-04-15T04:08:13.887Z,8.80
2023-04-15T04:11:16.504Z,8.90
2023-04-15T04:14:19.589Z,9.32
2023-04-15T04:17:22.280Z,8.80
2023-04-15T04:20:25.136Z,8.50
2023-04-15T04:23:28.658Z,8.52
2023-04-15T04:26:31.305Z,8.57
2023-04-15T04:29:38.549Z,8.35
2023-04-15T04:32:41.141Z,8.73
2023-04-15T04:35:43.761Z,9.20
2023-04-15T04:38:46.664Z,9.23
2023-04-15T04:41:52.267Z,8.77
2023-04-15T04:44:54.953Z,9.70
2023-04-15T04:47:58.238Z,10.10
2023-04-15T04:51:01.073Z,12.70
2023-04-15T04:54:04.369Z,12.18
2023-04-15T04:57:08.122Z,10.77
2023-04-15T05:00:11.224Z,10.50
2023-04-15T05:03:14.526Z,9.37
2023-04-15T05:06:17.168Z,10.33
2023-04-15T05:09:20.178Z,9.48
2023-04-15T05:12:22.764Z,8.23
2023-04-15T05:15:25.477Z,9.60
2023-04-15T05:18:28.733Z,8.33
2023-04-15T05:21:31.853Z,9.20
2023-04-15T05:24:34.656Z,8.57
2023-04-15T05:27:37.303Z,9.30
2023-04-15T05:30:40.805Z,8.15
2023-04-15T05:33:44.383Z,8.57
2023-04-15T05:36:47.752Z,8.30
2023-04-15T05:39:50.405Z,7.22
2023-04-15T05:42:53.065Z,7.07
2023-04-15T05:45:57.013Z,7.15
2023-04-15T05:49:00.068Z,6.90
2023-04-15T05:52:04.145Z,5.77
2023-04-15T05:55:07.447Z,6.57
2023-04-15T05:58:09.951Z,5.93
2023-04-15T06:01:12.530Z,6.72
2023-04-15T06:04:15.552Z,6.43
2023-04-15T06:07:18.796Z,6.80
2023-04-15T06:10:21.562Z,8.63
2023-04-15T06:13:24.147Z,6.60
2023-04-15T06:16:27.403Z,6.20
2023-04-15T06:19:30.390Z,6.20
2023-04-15T06:22:33.222Z,5.83
2023-04-15T06:25:35.869Z,6.18
2023-04-15T06:28:38.534Z,5.25
2023-04-15T06:31:50.281Z,5.60
2023-04-15T06:34:52.886Z,5.83
2023-04-15T06:37:55.408Z,5.50
2023-04-15T06:40:58.982Z,5.70
2023-04-15T06:44:02.664Z,5.68
2023-04-15T06:47:05.410Z,5.65
2023-04-15T06:50:09.383Z,5.87
2023-04-15T06:53:12.402Z,5.87
2023-04-15T06:56:15.838Z,5.78
2023-04-15T06:59:19.029Z,4.78
2023-04-15T07:02:22.114Z,5.28
2023-04-15T07:05:25.475Z,5.17
2023-04-15T07:08:28.073Z,5.30
2023-04-15T07:11:31.423Z,4.97
2023-04-15T07:14:33.934Z,4.82
2023-04-15T07:17:37.186Z,5.18
2023-04-15T07:20:40.259Z,5.00
2023-04-15T07:23:44.089Z,5.90
2023-04-15T07:26:47.304Z,5.15
2023-04-15T07:29:52.080Z,5.00
2023-04-15T07:32:55.344Z,5.40
2023-04-15T07:35:58.221Z,5.03
2023-04-15T07:39:03.684Z,5.10
2023-04-15T07:42:07.453Z,4.25
2023-04-15T07:45:11.475Z,4.03
2023-04-15T07:48:14.074Z,4.18
2023-04-15T07:51:17.829Z,3.70
2023-04-15T07:54:21.574Z,3.90
2023-04-15T07:57:24.339Z,3.40
2023-04-15T08:00:27.077Z,3.45
2023-04-15T08:03:30.016Z,2.80
2023-04-15T08:06:33.274Z,3.07
2023-04-15T08:09:36.030Z,3.50
2023-04-15T08:12:38.672Z,3.10
2023-04-15T08:15:41.376Z,3.65
2023-04-15T08:18:44.392Z,3.15
2023-04-15T08:21:47.931Z,3.07
2023-04-15T08:24:50.579Z,2.40
2023-04-15T08:27:57.173Z,2.47
2023-04-15T08:31:00.006Z,2.20
2023-04-15T08:34:03.702Z,2.10
2023-04-15T08:37:07.101Z,1.90
2023-04-15T08:40:10.879Z,1.90
2023-04-15T08:43:20.974Z,2.08
2023-04-15T08:46:24.267Z,1.20
2023-04-15T08:49:29.118Z,1.77
2023-04-15T08:52:32.316Z,1.80
2023-04-15T08:55:36.855Z,1.70
2023-04-15T08:58:40.704Z,1.98
2023-04-15T09:01:44.174Z,2.13
2023-04-15T09:04:47.552Z,1.95
2023-04-15T09:07:53.461Z,1.50
2023-04-15T09:10:56.305Z,1.60
2023-04-15T09:13:58.905Z,1.60
2023-04-15T09:17:03.998Z,1.30
2023-04-15T09:20:11.547Z,1.90
2023-04-15T09:23:15.906Z,1.40
2023-04-15T09:26:19.591Z,1.30
2023-04-15T09:29:25.912Z,1.60
2023-04-15T09:32:28.633Z,1.20
2023-04-15T09:35:31.642Z,1.20
2023-04-15T09:38:34.297Z,1.20
2023-04-15T09:41:36.919Z,1.50
2023-04-15T09:44:39.647Z,1.45
2023-04-15T09:47:42.555Z,1.23
2023-04-15T09:50:45.306Z,2.10
2023-04-15T09:53:54.746Z,1.33
2023-04-15T09:57:08.687Z,1.10
2023-04-15T10:00:11.731Z,2.10
2023-04-15T10:03:21.631Z,2.80
2023-04-15T10:06:28.071Z,2.50
2023-04-15T10:09:31.859Z,2.90
2023-04-15T10:12:37.515Z,2.70
2023-04-15T10:15:44.774Z,2.80
2023-04-15T10:18:56.114Z,2.00
2023-04-15T10:21:59.688Z,2.05
2023-04-15T10:25:04.284Z,1.63
2023-04-15T10:28:09.046Z,1.43
2023-04-15T10:31:13.823Z,1.92
2023-04-15T10:34:17.603Z,1.67
2023-04-15T10:37:35.738Z,1.48
2023-04-15T10:40:39.568Z,1.40
2023-04-15T10:44:08.420Z,1.20
2023-04-15T10:47:21.737Z,0.75
2023-04-15T10:50:28.867Z,2.70
2023-04-15T10:53:32.117Z,0.70
2023-04-15T10:56:34.658Z,0.50
2023-04-15T10:59:39.351Z,2.47
2023-04-15T11:02:44.917Z,1.20
2023-04-15T11:05:54.297Z,0.90
2023-04-15T11:08:59.592Z,1.30
2023-04-15T11:12:08.386Z,1.43
2023-04-15T11:15:32.586Z,1.10
2023-04-15T11:18:35.321Z,1.83
2023-04-15T11:21:38.276Z,1.25
2023-04-15T11:24:50.590Z,1.00
2023-04-15T11:27:57.605Z,0.63
2023-04-15T11:31:07.424Z,0.40
2023-04-15T11:34:10.296Z,0.70
2023-04-15T11:37:13.084Z,0.70
2023-04-15T11:40:17.645Z,0.70
2023-04-15T11:43:22.821Z,0.67
2023-04-15T11:46:32.012Z,0.70
2023-04-15T11:49:38.420Z,0.57
2023-04-15T11:52:41.542Z,0.68
2023-04-15T11:55:46.382Z,0.50
2023-04-15T11:58:54.147Z,0.60
2023-04-15T12:01:57.354Z,0.60
2023-04-15T12:05:08.560Z,0.70
2023-04-15T12:08:12.288Z,0.30
2023-04-15T12:11:16.533Z,0.60
2023-04-15T12:14:29.908Z,0.50
2023-04-15T12:17:50.870Z,0.30
2023-04-15T12:20:54.738Z,0.57
2023-04-15T12:23:58.080Z,0.73
2023-04-15T12:27:08.536Z,0.70
2023-04-15T12:30:11.796Z,0.80
2023-04-15T12:33:15.396Z,0.93
2023-04-15T12:36:18.697Z,0.90
2023-04-15T12:39:25.391Z,0.75
2023-04-15T12:42:28.234Z,0.90
2023-04-15T12:45:31.749Z,0.80
2023-04-15T12:48:34.761Z,0.70
2023-04-15T12:51:37.715Z,1.20
2023-04-15T12:54:40.586Z,1.00
2023-04-15T12:57:43.746Z,0.90
2023-04-15T13:00:47.080Z,0.90
2023-04-15T13:03:51.255Z,0.73
2023-04-15T13:06:54.570Z,0.70
2023-04-15T13:09:57.775Z,0.73
2023-04-15T13:13:00.414Z,0.80
2023-04-15T13:16:03.231Z,1.10
2023-04-15T13:19:06.535Z,1.20
2023-04-15T13:22:09.348Z,1.13
2023-04-15T13:25:12.482Z,1.48
2023-04-15T13:28:15.189Z,1.20
2023-04-15T13:31:17.854Z,0.90
2023-04-15T13:34:20.803Z,1.20
2023-04-15T13:37:30.281Z,0.95
2023-04-15T13:40:32.961Z,0.82
2023-04-15T13:43:35.775Z,1.00
2023-04-15T13:46:39.614Z,1.03
2023-04-15T13:49:42.303Z,1.10
2023-04-15T13:52:45.786Z,1.00
2023-04-15T13:55:48.425Z,0.80
2023-04-15T13:58:53.020Z,0.85
2023-04-15T14:01:56.179Z,1.07
2023-04-15T14:04:58.963Z,1.20
2023-04-15T14:08:01.641Z,1.40
2023-04-15T14:11:04.267Z,1.42
2023-04-15T14:14:06.973Z,1.75
2023-04-15T14:17:09.606Z,1.83
2023-04-15T14:20:13.201Z,2.17
2023-04-15T14:23:16.741Z,2.78
2023-04-15T14:26:19.556Z,3.10
2023-04-15T14:29:22.337Z,3.20
2023-04-15T14:32:26.415Z,1.53
2023-04-15T14:35:30.006Z,1.60
2023-04-15T14:38:38.486Z,1.98
2023-04-15T14:41:41.436Z,2.40
2023-04-15T14:44:44.857Z,2.60
2023-04-15T14:47:47.776Z,2.27
2023-04-15T14:50:50.700Z,3.40
2023-04-15T14:53:53.731Z,3.45
2023-04-15T14:56:56.437Z,4.15
2023-04-15T14:59:59.275Z,4.20
2023-04-15T15:03:04.070Z,4.00
2023-04-15T15:06:06.956Z,3.83
2023-04-15T15:09:09.772Z,3.30
2023-04-15T15:12:12.386Z,3.13
2023-04-15T15:15:28.256Z,2.70
2023-04-15T15:18:31.985Z,2.53
2023-04-15T15:21:35.095Z,2.20
2023-04-15T15:24:37.692Z,1.70
2023-04-15T15:27:40.485Z,1.40
2023-04-15T15:30:43.108Z,1.30
2023-04-15T15:33:45.874Z,1.17
2023-04-15T15:36:48.692Z,0.97
2023-04-15T15:39:53.489Z,0.50
2023-04-15T15:42:56.166Z,0.57
2023-04-15T15:45:58.897Z,0.40
2023-04-15T15:49:04.106Z,0.67
2023-04-15T15:52:07.699Z,1.00
2023-04-15T15:55:10.435Z,1.05
2023-04-15T15:58:13.148Z,0.77
2023-04-15T16:01:16.185Z,0.60
2023-04-15T16:04:19.464Z,1.00
2023-04-15T16:07:22.172Z,1.20
2023-04-15T16:10:24.936Z,1.30
2023-04-15T16:13:27.953Z,1.15
2023-04-15T16:16:31.088Z,1.70
2023-04-15T16:19:33.785Z,1.77
2023-04-15T16:22:36.550Z,2.07
2023-04-15T16:25:39.166Z,2.22
2023-04-15T16:28:42.017Z,2.30
2023-04-15T16:31:44.768Z,1.92
2023-04-15T16:34:47.559Z,2.00
2023-04-15T16:37:50.493Z,2.13
2023-04-15T16:40:54.431Z,2.50
2023-04-15T16:43:58.625Z,2.35
2023-04-15T16:47:03.128Z,2.38
2023-04-15T16:50:06.453Z,2.20
2023-04-15T16:53:09.136Z,2.40
2023-04-15T16:56:11.819Z,2.40
2023-04-15T16:59:14.456Z,2.47
2023-04-15T17:02:18.319Z,1.95
2023-04-15T17:05:21.184Z,2.10
2023-04-15T17:08:23.948Z,2.30
2023-04-15T17:11:28.178Z,1.83
2023-04-15T17:14:32.252Z,1.88
2023-04-15T17:17:34.862Z,2.10
2023-04-15T17:20:39.521Z,2.00
2023-04-15T17:23:43.267Z,2.00
2023-04-15T17:26:47.220Z,2.40
2023-04-15T17:29:49.835Z,2.45
2023-04-15T17:32:53.193Z,2.70
2023-04-15T17:35:57.907Z,2.40
2023-04-15T17:39:00.613Z,2.60
2023-04-15T17:42:03.313Z,2.78
2023-04-15T17:45:06.541Z,3.20
2023-04-15T17:48:09.299Z,3.15
2023-04-15T17:51:12.946Z,3.20
2023-04-15T17:54:16.067Z,3.40
2023-04-15T17:57:18.601Z,3.50
2023-04-15T18:00:22.108Z,3.90
2023-04-15T18:03:26.309Z,4.10
2023-04-15T18:06:29.239Z,3.73
2023-04-15T18:09:32.646Z,3.80
2023-04-15T18:12:35.426Z,3.67
2023-04-15T18:15:38.219Z,5.00
2023-04-15T18:18:40.922Z,4.78
2023-04-15T18:21:43.883Z,4.20
2023-04-15T18:24:46.519Z,4.60
2023-04-15T18:27:49.578Z,4.57
2023-04-15T18:30:52.124Z,4.32
2023-04-15T18:33:54.871Z,5.75
2023-04-15T18:36:58.761Z,10.37
2023-04-15T18:40:02.740Z,7.37
2023-04-15T18:43:06.370Z,7.55
2023-04-15T18:46:11.903Z,5.03
2023-04-15T18:49:15.926Z,5.20
2023-04-15T18:52:18.689Z,4.33
2023-04-15T18:55:21.352Z,4.77
2023-04-15T18:58:24.114Z,4.30
2023-04-15T19:01:27.708Z,4.10
2023-04-15T19:04:31.357Z,3.83
2023-04-15T19:07:34.976Z,4.23
2023-04-15T19:10:38.132Z,4.30
2023-04-15T19:13:40.808Z,4.50
2023-04-15T19:16:45.176Z,3.88
2023-04-15T19:19:47.923Z,4.45
2023-04-15T19:22:50.833Z,4.70
2023-04-15T19:25:53.616Z,4.37
2023-04-15T19:28:58.969Z,4.80
2023-04-15T19:32:02.165Z,4.75
2023-04-15T19:35:05.509Z,5.22
2023-04-15T19:38:08.718Z,6.80
2023-04-15T19:41:12.253Z,5.13
2023-04-15T19:44:15.139Z,4.78
2023-04-15T19:47:19.390Z,4.68
2023-04-15T19:50:26.285Z,4.95
2023-04-15T19:53:29.400Z,5.70
2023-04-15T19:56:34.405Z,5.37
2023-04-15T19:59:38.249Z,5.47
2023-04-15T20:02:41.982Z,5.72
2023-04-15T20:05:44.881Z,6.57
2023-04-15T20:08:47.448Z,6.33
2023-04-15T20:12:46.851Z,6.47
2023-04-15T20:15:13.474Z,6.15
2023-04-15T20:18:16.917Z,7.03
2023-04-15T20:21:19.498Z,7.85
2023-04-15T20:24:24.267Z,9.50
2023-04-15T20:27:27.786Z,28.70
2023-04-15T20:30:30.460Z,11.10
2023-04-15T20:33:33.175Z,10.40
2023-04-15T20:36:35.728Z,10.75
2023-04-15T20:39:39.849Z,9.93
2023-04-15T20:42:43.767Z,10.27
2023-04-15T20:45:47.386Z,10.05
2023-04-15T20:48:50.476Z,9.07
2023-04-15T20:51:53.111Z,10.20
2023-04-15T20:54:55.895Z,10.50
2023-04-15T20:57:59.141Z,9.30
2023-04-15T21:01:02.191Z,10.38
2023-04-15T21:04:05.023Z,10.35
2023-04-15T21:07:07.811Z,10.50
2023-04-15T21:10:10.715Z,10.23
2023-04-15T21:13:17.688Z,10.30
2023-04-15T21:16:22.317Z,10.77
2023-04-15T21:19:24.994Z,10.15
2023-04-15T21:22:27.822Z,10.88
2023-04-15T21:25:30.348Z,10.20
2023-04-15T21:28:33.303Z,10.20
2023-04-15T21:31:36.895Z,10.52
2023-04-15T21:34:39.495Z,10.27
2023-04-15T21:37:42.161Z,10.88
2023-04-15T21:40:44.721Z,10.17
2023-04-15T21:43:47.801Z,10.63
2023-04-15T21:46:51.188Z,10.40
2023-04-15T21:49:54.914Z,10.15
2023-04-15T21:52:57.624Z,10.20
2023-04-15T21:56:00.357Z,10.13
2023-04-15T21:59:03.981Z,10.57
2023-04-15T22:02:07.478Z,11.02
2023-04-15T22:05:10.096Z,10.95
2023-04-15T22:08:12.723Z,10.52
2023-04-15T22:11:23.062Z,11.17
2023-04-15T22:14:26.911Z,10.90
2023-04-15T22:17:29.675Z,10.82
2023-04-15T22:20:32.313Z,11.40
2023-04-15T22:23:35.439Z,11.82
2023-04-15T22:26:39.089Z,12.37
2023-04-15T22:29:41.751Z,11.57
2023-04-15T22:32:44.303Z,11.85
2023-04-15T22:35:47.436Z,11.73
2023-04-15T22:38:50.306Z,12.75
2023-04-15T22:41:53.218Z,12.60
2023-04-15T22:44:56.462Z,13.77
2023-04-15T22:47:59.132Z,14.13
2023-04-15T22:51:05.661Z,13.75
2023-04-15T22:54:09.496Z,14.90
2023-04-15T22:57:12.997Z,14.90
2023-04-15T23:00:15.630Z,16.27
2023-04-15T23:03:19.085Z,16.05
2023-04-15T23:06:22.041Z,15.48
2023-04-15T23:09:24.765Z,14.95
2023-04-15T23:12:28.079Z,16.03
2023-04-15T23:15:30.924Z,16.17
2023-04-15T23:18:34.275Z,16.45
2023-04-15T23:21:36.891Z,16.23
2023-04-15T23:24:39.679Z,16.88
2023-04-15T23:27:42.968Z,15.60
2023-04-15T23:30:45.570Z,15.97
2023-04-15T23:33:48.550Z,14.90
2023-04-15T23:36:51.991Z,14.98
2023-04-15T23:39:55.910Z,14.55
2023-04-15T23:42:58.493Z,13.80
2023-04-15T23:46:02.109Z,14.47
2023-04-15T23:49:04.908Z,14.07
2023-04-15T23:52:08.062Z,13.70
2023-04-15T23:55:10.628Z,14.50
2023-04-15T23:58:14.026Z,13.70
